FQMA/MPM METAR and TAF weather

Enter ICAO airport designator
Station Type Date Time Source
FQMA METAR 2019/10/20 20:00 UTC NOAA

FQMA 202000Z 06011KT 9999 FEW020 26/21 Q1007 NOSIG


Station Type Date Time Source
FQMA Decoded METAR 2019/10/20 20:00 UTC NOAA

Maputo / Mavalane, Mozambique (FQMA) 25-55S 032-34E 44M
Oct 20, 2019 - 04:00 PM EDT / 2019.10.20 2000 UTC
Wind: from the ENE (060 degrees) at 13 MPH (11 KT):0
Visibility: greater than 7 mile(s):0
Sky conditions: mostly clear
Temperature: 78 F (26 C)
Dew Point: 69 F (21 C)
Relative Humidity: 73%
Pressure (altimeter): 29.74 in. Hg (1007 hPa)
ob: FQMA 202000Z 06011KT 9999 FEW020 26/21 Q1007 NOSIG
cycle: 20

Station Type Date Time Source
FQMA TAF 2019/10/20 18:18 UTC NOAA

TAF FQMA 201600Z 2018/2124 05014KT 9999 FEW020 FEW030CB TX29/2113Z TN21/2103Z
BECMG 2101/2103 09008KT BKN020
BECMG 2105/2107 17014KT
BECMG 2115/2117 15012G22KT
BECMG 2121/2123 19014KT SCT015

Example: see airport list